Time;durP1;ratioP1;P1;durP2;ratioP2;P2;SDS_P1;SDS_P2;PMS_P1;PMS_P2;Temp;Humidity;BMP_temperature;BMP_pressure;BME280_temperature;BME280_humidity;BME280_pressure;Samples;Min_cycle;Max_cycle;Signal;HPM_P1;HPM_P2
2022/04/24 00:01:15;;;;;;;;;;;;;;;10.28;78.99;99836.77;124781;1099;104186;-76
2022/04/24 00:03:46;;;;;;;;;;;;;;;10.26;78.46;99831.48;124814;1098;104146;-76
2022/04/24 00:06:16;;;;;;;;;;;;;;;10.27;79.02;99835.02;124843;1099;104226;-76
2022/04/24 00:08:46;;;;;;;;;;;;;;;10.28;78.92;99839.39;124733;1099;104236;-76
2022/04/24 00:11:15;;;;;;;;;;;;;;;10.29;78.65;99845.55;124852;1099;102086;-76
2022/04/24 00:13:45;;;;;;;;;;;;;;;10.26;79.09;99844.59;124824;1099;101889;-77
2022/04/24 00:16:15;;;;;;;;;;;;;;;10.25;78.60;99849.80;124887;1099;102659;-76
2022/04/24 00:18:44;;;;;;;;;;;;;;;10.22;79.38;99848.00;124749;1099;104245;-76
2022/04/24 00:21:14;;;;;;;;;;;;;;;10.22;79.06;99850.63;124818;1099;102753;-77
2022/04/24 00:23:45;;;;;;;;;;;;;;;10.21;78.90;99850.58;124793;1099;102835;-77
2022/04/24 00:26:14;;;;;;;;;;;;;;;10.21;78.27;99847.96;124767;1099;104201;-77
2022/04/24 00:28:44;;;;;;;;;;;;;;;10.22;78.04;99844.47;124813;1099;104240;-77
2022/04/24 00:31:14;;;;;;;;;;;;;;;10.23;78.48;99854.13;124804;1099;104182;-76
2022/04/24 00:33:44;;;;;;;;;;;;;;;10.23;78.09;99848.87;124888;1098;104192;-76
2022/04/24 00:36:14;;;;;;;;;;;;;;;10.24;78.08;99842.80;124831;1099;104110;-76
2022/04/24 00:38:44;;;;;;;;;;;;;;;10.24;78.35;99853.28;124794;1099;104229;-76
2022/04/24 00:41:14;;;;;;;;;;;;;;;10.23;78.61;99868.11;124744;1099;104185;-77
2022/04/24 00:43:52;;;;;;;;;;;;;;;10.22;78.55;99849.72;124808;1099;102758;-76
2022/04/24 00:46:43;;;;;;;;;;;;;;;10.24;78.43;99861.16;124830;1099;102172;-77
2022/04/24 00:49:13;;;;;;;;;;;;;;;10.26;78.59;99862.07;124874;1099;104163;-76
2022/04/24 00:51:43;;;;;;;;;;;;;;;10.28;78.25;99869.98;124897;1099;102912;-76
2022/04/24 00:54:15;;;;;;;;;;;;;;;10.30;78.43;99878.77;124788;1099;102910;-76
2022/04/24 00:56:45;;;;;;;;;;;;;;;10.30;78.26;99877.05;124748;1099;105213;-77
2022/04/24 00:59:15;;;;;;;;;;;;;;;10.30;78.24;99878.77;124767;1098;102426;-76
2022/04/24 01:01:45;;;;;;;;;;;;;;;10.31;78.71;99878.80;124825;1099;104277;-76
2022/04/24 01:04:14;;;;;;;;;;;;;;;10.32;78.27;99882.34;124851;1099;102758;-76
2022/04/24 01:06:44;;;;;;;;;;;;;;;10.30;77.98;99887.54;124852;1099;103261;-77
2022/04/24 01:09:15;;;;;;;;;;;;;;;10.26;78.50;99888.30;124882;1099;104210;-76
2022/04/24 01:11:46;;;;;;;;;;;;;;;10.24;78.79;99884.75;124842;1099;104264;-77
2022/04/24 01:14:20;;;;;;;;;;;;;;;10.19;79.24;99875.84;124803;1099;104169;-76
2022/04/24 01:16:50;;;;;;;;;;;;;;;10.17;78.79;99875.81;124835;1099;104156;-76
2022/04/24 01:19:20;;;;;;;;;;;;;;;10.15;78.37;99884.50;124845;1099;102791;-76
2022/04/24 01:21:50;;;;;;;;;;;;;;;10.14;78.88;99885.33;124793;1099;103210;-76
2022/04/24 01:24:20;;;;;;;;;;;;;;;10.12;78.44;99887.03;124777;1099;104207;-77
2022/04/24 01:26:50;;;;;;;;;;;;;;;10.10;78.04;99888.70;124830;1099;104172;-77
2022/04/24 01:29:25;;;;;;;;;;;;;;;10.07;78.56;99884.28;124840;1099;104166;-76
2022/04/24 01:31:55;;;;;;;;;;;;;;;10.02;78.71;99876.29;124893;1099;104153;-76
2022/04/24 01:34:26;;;;;;;;;;;;;;;9.98;77.84;99871.80;124833;1099;104205;-76
2022/04/24 01:36:55;;;;;;;;;;;;;;;9.95;78.16;99876.95;124809;1099;104160;-76
2022/04/24 01:39:26;;;;;;;;;;;;;;;9.97;78.80;99872.67;124758;1099;104239;-76
2022/04/24 01:41:56;;;;;;;;;;;;;;;10.00;78.86;99888.48;124823;1099;104313;-77
2022/04/24 01:44:26;;;;;;;;;;;;;;;10.05;78.82;99888.58;124766;1099;102174;-76
2022/04/24 01:46:55;;;;;;;;;;;;;;;10.07;78.72;99890.41;124824;1099;103087;-76
2022/04/24 01:49:25;;;;;;;;;;;;;;;10.06;78.79;99901.72;124805;1098;104192;-77
2022/04/24 01:51:55;;;;;;;;;;;;;;;10.08;78.91;99899.14;124795;1099;102788;-77
2022/04/24 01:54:24;;;;;;;;;;;;;;;10.06;78.25;99901.72;124815;1099;102154;-76
2022/04/24 01:56:54;;;;;;;;;;;;;;;10.04;78.50;99903.42;124817;1099;104227;-78
2022/04/24 01:59:23;;;;;;;;;;;;;;;10.02;78.96;99902.50;124839;1098;102774;-77
2022/04/24 02:01:53;;;;;;;;;;;;;;;9.99;78.49;99901.54;124859;1099;104248;-77
2022/04/24 02:04:23;;;;;;;;;;;;;;;9.96;78.21;99898.83;124851;1098;104249;-77
2022/04/24 02:06:53;;;;;;;;;;;;;;;9.95;78.24;99905.78;124775;1099;104283;-76
2022/04/24 02:09:23;;;;;;;;;;;;;;;9.99;78.49;99902.41;126041;1098;104223;-77
2022/04/24 02:11:52;;;;;;;;;;;;;;;10.03;78.45;99916.48;124717;1099;104325;-76
2022/04/24 02:14:22;;;;;;;;;;;;;;;10.03;78.40;99917.36;124766;1099;104185;-77
2022/04/24 02:16:51;;;;;;;;;;;;;;;10.04;78.87;99911.29;124842;1099;103273;-76
2022/04/24 02:19:21;;;;;;;;;;;;;;;10.05;78.92;99915.70;124789;1099;104184;-76
2022/04/24 02:21:51;;;;;;;;;;;;;;;10.03;78.63;99906.88;124841;1099;104235;-77
2022/04/24 02:24:21;;;;;;;;;;;;;;;10.00;78.63;99917.31;124828;1099;104291;-77
2022/04/24 02:26:50;;;;;;;;;;;;;;;9.99;78.71;99915.52;124820;1099;102755;-76
2022/04/24 02:29:20;;;;;;;;;;;;;;;9.99;78.24;99919.89;124858;1099;104229;-76
2022/04/24 02:31:50;;;;;;;;;;;;;;;10.00;78.79;99922.55;124878;1099;104264;-76
2022/04/24 02:34:20;;;;;;;;;;;;;;;10.02;78.90;99925.19;124827;1098;102136;-77
2022/04/24 02:36:49;;;;;;;;;;;;;;;10.02;78.47;99923.47;124800;1099;104179;-76
2022/04/24 02:39:18;;;;;;;;;;;;;;;10.02;78.70;99923.47;124847;1099;104160;-76
2022/04/24 02:41:48;;;;;;;;;;;;;;;10.00;79.01;99927.80;124778;1099;104245;-77
2022/04/24 02:44:18;;;;;;;;;;;;;;;10.00;78.91;99927.80;124778;1099;104293;-76
2022/04/24 02:46:47;;;;;;;;;;;;;;;10.01;78.43;99934.80;124387;1099;104259;-76
2022/04/24 02:49:17;;;;;;;;;;;;;;;10.02;78.95;99935.67;124289;1099;104188;-76
2022/04/24 02:51:47;;;;;;;;;;;;;;;10.02;78.56;99940.91;124718;1098;104208;-76
2022/04/24 02:54:17;;;;;;;;;;;;;;;10.02;78.54;99941.83;124347;1099;104172;-76
2022/04/24 02:56:46;;;;;;;;;;;;;;;10.01;78.43;99940.03;124709;1099;104313;-76
2022/04/24 02:59:16;;;;;;;;;;;;;;;10.02;78.70;99941.83;124730;1099;102836;-77
2022/04/24 03:01:46;;;;;;;;;;;;;;;10.02;78.49;99944.45;124323;1099;104415;-76
2022/04/24 03:04:15;;;;;;;;;;;;;;;10.02;78.68;99944.45;124671;1099;104159;-77
2022/04/24 03:06:45;;;;;;;;;;;;;;;10.00;78.97;99948.77;124726;1099;104456;-77
2022/04/24 03:09:15;;;;;;;;;;;;;;;10.01;78.65;99950.52;124679;1099;104233;-76
2022/04/24 03:11:45;;;;;;;;;;;;;;;10.00;78.81;99959.25;124800;1099;104307;-76
2022/04/24 03:14:14;;;;;;;;;;;;;;;10.00;78.85;99959.25;124724;1099;104246;-77
2022/04/24 03:16:44;;;;;;;;;;;;;;;10.00;79.03;99961.87;124721;1099;104339;-76
2022/04/24 03:19:14;;;;;;;;;;;;;;;9.99;78.92;99960.08;124812;1099;104169;-77
2022/04/24 03:21:43;;;;;;;;;;;;;;;9.97;78.44;99967.02;124789;1099;104197;-76
2022/04/24 03:24:13;;;;;;;;;;;;;;;9.97;78.43;99969.64;124763;1099;104762;-76
2022/04/24 03:26:43;;;;;;;;;;;;;;;9.99;78.54;99961.83;124833;1099;104319;-76
2022/04/24 03:29:12;;;;;;;;;;;;;;;10.00;78.96;99967.11;124760;1098;104264;-77
2022/04/24 03:31:42;;;;;;;;;;;;;;;10.01;78.51;99973.23;124829;1099;104101;-77
2022/04/24 03:34:12;;;;;;;;;;;;;;;9.99;78.48;99967.95;124948;1099;104204;-77
2022/04/24 03:36:42;;;;;;;;;;;;;;;9.99;78.33;99969.69;124942;1099;102739;-77
2022/04/24 03:39:11;;;;;;;;;;;;;;;9.95;78.84;99965.19;124891;1099;102839;-78
2022/04/24 03:41:41;;;;;;;;;;;;;;;9.95;78.43;99968.69;124812;1099;104175;-77
2022/04/24 03:44:11;;;;;;;;;;;;;;;9.93;78.69;99953.78;124378;1099;104073;-77
2022/04/24 03:46:41;;;;;;;;;;;;;;;10.02;79.11;99968.03;124793;1099;104179;-77
2022/04/24 03:49:11;;;;;;;;;;;;;;;10.10;79.22;99969.97;124793;1099;104150;-77
2022/04/24 03:51:41;;;;;;;;;;;;;;;10.16;78.73;99972.77;124841;1099;104456;-76
2022/04/24 03:54:11;;;;;;;;;;;;;;;10.19;78.89;99975.48;124791;1099;102665;-76
2022/04/24 03:56:40;;;;;;;;;;;;;;;10.18;78.51;99979.84;124876;1099;104246;-77
2022/04/24 03:59:10;;;;;;;;;;;;;;;10.17;78.91;99983.30;124809;1098;104303;-78
2022/04/24 04:01:40;;;;;;;;;;;;;;;10.15;78.39;99979.76;124806;1099;104274;-77
2022/04/24 04:04:10;;;;;;;;;;;;;;;10.14;78.49;99990.20;124896;1099;102996;-77
2022/04/24 04:06:41;;;;;;;;;;;;;;;10.13;78.95;99981.45;124814;1099;104232;-77
2022/04/24 04:09:11;;;;;;;;;;;;;;;10.12;78.77;99976.17;124765;1099;104203;-76
2022/04/24 04:11:41;;;;;;;;;;;;;;;10.13;78.88;99985.79;124843;1099;101876;-76
2022/04/24 04:14:10;;;;;;;;;;;;;;;10.11;78.26;99990.11;124832;1099;104169;-77
2022/04/24 04:16:40;;;;;;;;;;;;;;;10.11;78.61;99992.73;124860;1098;103267;-77
2022/04/24 04:19:09;;;;;;;;;;;;;;;10.12;78.79;99999.77;124799;1099;104188;-77
2022/04/24 04:21:39;;;;;;;;;;;;;;;10.13;78.54;100009.38;124948;1098;104226;-76
2022/04/24 04:24:11;;;;;;;;;;;;;;;10.17;78.60;100014.77;124875;1099;102823;-77
2022/04/24 04:26:41;;;;;;;;;;;;;;;10.26;79.02;100014.16;124839;1099;104201;-77
2022/04/24 04:29:11;;;;;;;;;;;;;;;10.35;79.11;100022.33;124804;1099;104217;-76
2022/04/24 04:31:41;;;;;;;;;;;;;;;10.41;79.54;100026.87;124696;1099;102032;-77
2022/04/24 04:34:11;;;;;;;;;;;;;;;10.46;79.42;100040.13;124859;1099;104284;-76
2022/04/24 04:36:41;;;;;;;;;;;;;;;10.48;78.90;100041.92;124859;1099;104207;-77
2022/04/24 04:39:12;;;;;;;;;;;;;;;10.52;79.25;100042.92;124796;1099;104185;-77
2022/04/24 04:41:41;;;;;;;;;;;;;;;10.55;79.00;100046.52;124813;1099;104169;-78
2022/04/24 04:44:13;;;;;;;;;;;;;;;10.59;79.14;100050.09;124881;1099;104183;-78
2022/04/24 04:46:44;;;;;;;;;;;;;;;10.62;79.67;100050.19;124855;1099;104172;-77
2022/04/24 04:49:15;;;;;;;;;;;;;;;10.65;79.08;100049.39;124760;1099;102873;-77
2022/04/24 04:51:46;;;;;;;;;;;;;;;10.70;79.29;100053.91;124942;1099;104172;-78
2022/04/24 04:54:16;;;;;;;;;;;;;;;10.78;79.29;100047.16;124898;1099;102900;-77
2022/04/24 04:56:46;;;;;;;;;;;;;;;10.86;79.24;100044.75;124889;1099;104185;-77
2022/04/24 04:59:16;;;;;;;;;;;;;;;10.97;79.29;100050.28;124907;1098;104335;-77
2022/04/24 05:01:46;;;;;;;;;;;;;;;11.08;79.43;100053.16;124918;1098;104236;-78
2022/04/24 05:04:15;;;;;;;;;;;;;;;11.17;79.04;100045.53;124903;1099;104198;-77
2022/04/24 05:06:45;;;;;;;;;;;;;;;11.23;79.32;100045.69;124911;1099;104150;-77
2022/04/24 05:09:16;;;;;;;;;;;;;;;11.25;78.77;100043.11;124844;1099;104270;-77
2022/04/24 05:11:46;;;;;;;;;;;;;;;11.30;79.37;100054.64;124783;1098;104265;-77
2022/04/24 05:14:16;;;;;;;;;;;;;;;11.35;79.08;100055.63;124835;1099;102853;-77
2022/04/24 05:16:45;;;;;;;;;;;;;;;11.42;79.12;100046.16;124907;1099;104261;-77
2022/04/24 05:19:16;;;;;;;;;;;;;;;11.50;79.07;100045.52;124823;1099;104242;-77
2022/04/24 05:21:47;;;;;;;;;;;;;;;11.60;79.15;100043.11;124839;1099;102813;-77
2022/04/24 05:24:16;;;;;;;;;;;;;;;11.70;78.95;100052.97;124921;1099;104274;-77
2022/04/24 05:26:48;;;;;;;;;;;;;;;11.80;79.16;100047.09;124806;1099;105099;-76
2022/04/24 05:29:18;;;;;;;;;;;;;;;11.93;78.98;100047.41;124839;1099;102957;-76
2022/04/24 05:31:50;;;;;;;;;;;;;;;12.04;78.78;100049.45;124874;1099;104166;-77
2022/04/24 05:34:20;;;;;;;;;;;;;;;12.15;78.89;100051.41;124838;1099;103600;-76
2022/04/24 05:36:50;;;;;;;;;;;;;;;12.20;77.93;100050.67;124902;1098;104595;-76
2022/04/24 05:39:20;;;;;;;;;;;;;;;12.29;77.82;100047.33;124872;1099;102481;-77
2022/04/24 05:41:50;;;;;;;;;;;;;;;12.43;78.31;100054.64;124929;1096;104156;-77
2022/04/24 05:44:21;;;;;;;;;;;;;;;12.51;77.90;100053.05;125217;1096;104387;-77
2022/04/24 05:46:52;;;;;;;;;;;;;;;12.65;77.90;100056.84;125304;1095;104268;-78
2022/04/24 05:49:23;;;;;;;;;;;;;;;12.67;77.81;100062.13;125356;1096;104259;-77
2022/04/24 05:51:54;;;;;;;;;;;;;;;12.66;77.48;100055.98;125327;1096;104156;-78
2022/04/24 05:54:23;;;;;;;;;;;;;;;12.63;77.48;100062.95;125338;1096;103296;-76
2022/04/24 05:56:54;;;;;;;;;;;;;;;12.58;77.16;100078.65;125352;1096;104223;-77
2022/04/24 05:59:24;;;;;;;;;;;;;;;12.50;77.19;100073.22;125259;1096;104284;-76
2022/04/24 06:01:54;;;;;;;;;;;;;;;12.44;77.19;100080.11;125258;1095;104159;-76
2022/04/24 06:04:24;;;;;;;;;;;;;;;12.39;76.30;100072.11;125310;1096;104268;-77
2022/04/24 06:06:54;;;;;;;;;;;;;;;12.38;76.87;100081.73;125268;1096;104757;-76
2022/04/24 06:09:24;;;;;;;;;;;;;;;12.40;76.83;100081.77;124957;1096;104290;-77
2022/04/24 06:11:58;;;;;;;;;;;;;;;12.40;76.90;100079.12;126473;1094;102310;-78
2022/04/24 06:14:29;;;;;;;;;;;;;;;12.39;76.58;100077.37;125318;1096;104277;-78
2022/04/24 06:17:03;;;;;;;;;;;;;;;12.44;76.73;100075.72;125390;1096;102668;-77
2022/04/24 06:19:33;;;;;;;;;;;;;;;12.45;76.39;100069.61;125466;1096;102350;-78
2022/04/24 06:22:03;;;;;;;;;;;;;;;12.47;76.20;100080.17;125398;1096;102480;-77
2022/04/24 06:24:34;;;;;;;;;;;;;;;12.45;75.44;100072.25;125392;1096;102447;-76
2022/04/24 06:27:06;;;;;;;;;;;;;;;12.47;76.06;100070.52;125380;1096;104197;-78
2022/04/24 06:29:38;;;;;;;;;;;;;;;12.51;76.11;100072.38;125349;1096;104179;-77
2022/04/24 06:32:10;;;;;;;;;;;;;;;12.54;75.82;100074.16;124936;1096;104157;-76
2022/04/24 06:34:43;;;;;;;;;;;;;;;12.59;75.55;100070.78;125559;1096;118668;-77
2022/04/24 06:37:14;;;;;;;;;;;;;;;12.68;75.72;100071.81;125023;1096;104217;-77
2022/04/24 06:39:45;;;;;;;;;;;;;;;12.74;75.49;100077.20;125328;1095;104278;-77
2022/04/24 06:42:16;;;;;;;;;;;;;;;12.81;75.64;100078.20;124948;1096;104190;-77
2022/04/24 06:44:46;;;;;;;;;;;;;;;12.86;74.35;100077.45;125393;1096;104204;-76
2022/04/24 06:47:17;;;;;;;;;;;;;;;12.92;75.52;100088.11;125284;1095;104169;-76
2022/04/24 06:49:50;;;;;;;;;;;;;;;13.00;75.32;100082.11;125339;1096;104238;-77
2022/04/24 06:52:20;;;;;;;;;;;;;;;13.08;74.75;100084.02;125469;1096;104264;-77
2022/04/24 06:54:52;;;;;;;;;;;;;;;13.17;75.07;100085.95;125666;1096;101977;-77
2022/04/24 06:57:23;;;;;;;;;;;;;;;13.29;74.88;100080.90;125657;1096;103564;-78
2022/04/24 06:59:54;;;;;;;;;;;;;;;13.47;75.02;100076.84;125341;1096;104248;-78
2022/04/24 07:02:24;;;;;;;;;;;;;;;13.58;71.87;100066.48;124960;1096;104236;-77
2022/04/24 07:04:55;;;;;;;;;;;;;;;13.69;74.61;100070.16;125421;1096;102290;-77
2022/04/24 07:07:26;;;;;;;;;;;;;;;13.81;74.24;100057.17;125373;1096;102771;-76
2022/04/24 07:09:57;;;;;;;;;;;;;;;13.96;72.12;100055.62;125415;1096;104650;-77
2022/04/24 07:12:27;;;;;;;;;;;;;;;14.08;70.33;100057.57;126719;1095;104722;-77
2022/04/24 07:14:58;;;;;;;;;;;;;;;14.15;72.44;100054.16;126539;1096;102707;-76
2022/04/24 07:17:30;;;;;;;;;;;;;;;14.29;69.87;100076.34;126113;1096;102273;-76
2022/04/24 07:20:00;;;;;;;;;;;;;;;14.40;69.60;100073.85;125516;1096;104193;-76
2022/04/24 07:22:30;;;;;;;;;;;;;;;14.52;70.31;100075.75;125985;1096;104730;-77
2022/04/24 07:24:59;;;;;;;;;;;;;;;14.63;69.32;100074.19;125606;1096;102954;-76
2022/04/24 07:27:29;;;;;;;;;;;;;;;14.74;70.95;100079.59;125274;1096;104194;-76
2022/04/24 07:29:58;;;;;;;;;;;;;;;14.88;69.83;100085.02;125265;1095;102778;-76
2022/04/24 07:32:38;;;;;;;;;;;;;;;15.00;69.37;100077.23;125421;1096;104208;-76
2022/04/24 07:35:12;;;;;;;;;;;;;;;15.11;67.38;100082.62;125431;1096;102816;-77
2022/04/24 07:37:42;;;;;;;;;;;;;;;15.24;69.97;100083.66;125439;1096;102624;-77
2022/04/24 07:40:13;;;;;;;;;;;;;;;15.40;68.94;100082.05;125338;1096;102341;-76
2022/04/24 07:42:59;;;;;;;;;;;;;;;15.52;69.61;100078.61;125314;1096;104175;-76
2022/04/24 07:45:30;;;;;;;;;;;;;;;15.59;66.41;100088.37;125246;1096;104231;-76
2022/04/24 07:48:01;;;;;;;;;;;;;;;15.68;63.86;100091.11;125482;1096;104226;-76
2022/04/24 07:50:32;;;;;;;;;;;;;;;15.78;68.57;100086.80;125315;1094;104305;-76
2022/04/24 07:53:03;;;;;;;;;;;;;;;15.92;67.92;100089.55;125277;1096;104225;-77
2022/04/24 07:55:33;;;;;;;;;;;;;;;16.10;67.95;100091.45;125230;1096;104640;-76
2022/04/24 07:58:05;;;;;;;;;;;;;;;16.26;66.30;100084.48;125361;1096;104322;-76
2022/04/24 08:00:35;;;;;;;;;;;;;;;16.39;66.78;100090.73;125570;1096;101970;-76
2022/04/24 08:03:05;;;;;;;;;;;;;;;16.55;64.49;100089.94;125388;1096;104226;-76
2022/04/24 08:05:36;;;;;;;;;;;;;;;16.63;63.79;100089.98;125350;1096;104207;-76
2022/04/24 08:08:07;;;;;;;;;;;;;;;16.57;63.36;100095.25;125451;1096;104174;-77
2022/04/24 08:10:37;;;;;;;;;;;;;;;16.47;61.29;100083.70;125453;1096;104265;-76
2022/04/24 08:13:08;;;;;;;;;;;;;;;16.53;64.63;100092.58;125425;1094;104220;-76
2022/04/24 08:15:38;;;;;;;;;;;;;;;16.54;64.66;100091.69;125375;1096;102078;-77
2022/04/24 08:18:10;;;;;;;;;;;;;;;16.61;65.05;100086.41;125325;1096;104147;-77
2022/04/24 08:20:42;;;;;;;;;;;;;;;16.69;64.24;100082.94;125343;1096;104232;-77
2022/04/24 08:23:13;;;;;;;;;;;;;;;16.81;63.16;100089.15;125353;1096;104223;-76
2022/04/24 08:25:44;;;;;;;;;;;;;;;16.93;64.12;100078.63;125226;1096;104252;-77
2022/04/24 08:28:14;;;;;;;;;;;;;;;17.08;63.94;100072.50;125265;1096;104187;-76
2022/04/24 08:30:45;;;;;;;;;;;;;;;17.13;63.10;100073.38;125379;1096;104153;-76
2022/04/24 08:33:17;;;;;;;;;;;;;;;17.19;63.54;100075.17;125419;1096;102762;-76
2022/04/24 08:35:48;;;;;;;;;;;;;;;17.31;62.89;100074.28;125214;1095;104233;-77
2022/04/24 08:38:19;;;;;;;;;;;;;;;17.42;63.20;100062.82;125176;1096;104236;-76
2022/04/24 08:40:50;;;;;;;;;;;;;;;17.51;60.64;100061.05;125306;1095;104249;-76
2022/04/24 08:43:24;;;;;;;;;;;;;;;17.60;62.25;100059.27;125314;1096;102900;-76
2022/04/24 08:45:55;;;;;;;;;;;;;;;17.77;63.51;100061.92;125240;1096;104232;-76
2022/04/24 08:48:25;;;;;;;;;;;;;;;17.95;62.69;100063.72;125273;1096;104211;-77
2022/04/24 08:50:58;;;;;;;;;;;;;;;18.13;61.90;100067.22;125332;1096;104251;-76
2022/04/24 08:53:31;;;;;;;;;;;;;;;18.30;62.65;100070.70;125160;1096;104229;-77
2022/04/24 08:56:03;;;;;;;;;;;;;;;18.33;59.04;100067.17;125274;1095;104487;-76
2022/04/24 08:58:33;;;;;;;;;;;;;;;18.45;58.98;100060.91;125296;1096;102249;-77
2022/04/24 09:01:03;;;;;;;;;;;;;;;18.50;59.87;100061.80;125432;1096;104163;-77
2022/04/24 09:03:34;;;;;;;;;;;;;;;18.48;60.15;100059.15;125354;1096;102807;-77
2022/04/24 09:06:04;;;;;;;;;;;;;;;18.48;59.40;100064.47;125328;1096;104204;-78
2022/04/24 09:08:35;;;;;;;;;;;;;;;18.49;57.36;100071.52;125223;1096;104160;-77
2022/04/24 09:11:08;;;;;;;;;;;;;;;18.49;57.95;100068.00;125346;1096;102796;-77
2022/04/24 09:16:25;;;;;;;;;;;;;;;18.60;57.49;100063.52;125133;1095;104278;-77
2022/04/24 09:18:57;;;;;;;;;;;;;;;18.60;58.96;100060.86;125296;1096;104519;-76
2022/04/24 09:21:28;;;;;;;;;;;;;;;18.55;60.13;100069.76;125207;1095;104233;-77
2022/04/24 09:24:00;;;;;;;;;;;;;;;18.53;59.83;100066.20;125191;1096;104301;-77
2022/04/24 09:26:31;;;;;;;;;;;;;;;18.63;60.23;100060.84;125188;1096;104166;-76
2022/04/24 09:29:00;;;;;;;;;;;;;;;18.79;59.64;100063.44;125281;1096;104337;-76
2022/04/24 09:31:30;;;;;;;;;;;;;;;19.03;60.07;100063.34;125275;1095;104140;-76
2022/04/24 09:34:00;;;;;;;;;;;;;;;19.04;58.77;100067.77;125403;1096;104257;-77
2022/04/24 09:36:31;;;;;;;;;;;;;;;19.01;57.23;100064.23;125224;1096;101847;-77
2022/04/24 09:39:01;;;;;;;;;;;;;;;19.06;58.89;100066.86;125257;1095;104281;-77
2022/04/24 09:41:31;;;;;;;;;;;;;;;19.16;58.64;100058.82;125161;1096;104253;-76
2022/04/24 09:44:11;;;;;;;;;;;;;;;19.29;59.09;100053.42;125235;1096;104166;-77
2022/04/24 09:46:41;;;;;;;;;;;;;;;19.30;57.73;100053.41;125501;1096;102821;-78
2022/04/24 09:49:11;;;;;;;;;;;;;;;19.35;57.67;100045.39;125162;1096;104240;-77
2022/04/24 09:51:43;;;;;;;;;;;;;;;19.28;55.85;100047.23;125276;1096;102216;-76
2022/04/24 09:54:13;;;;;;;;;;;;;;;19.37;57.50;100040.97;125324;1096;101816;-76
2022/04/24 09:56:44;;;;;;;;;;;;;;;19.36;56.71;100045.38;125286;1096;101898;-77
2022/04/24 09:59:14;;;;;;;;;;;;;;;19.31;57.31;100033.91;125218;1096;104232;-77
2022/04/24 10:01:44;;;;;;;;;;;;;;;19.19;56.70;100028.67;125296;1096;104249;-77
2022/04/24 10:04:14;;;;;;;;;;;;;;;18.93;52.53;100034.16;125399;1096;104252;-78
2022/04/24 10:06:45;;;;;;;;;;;;;;;18.91;53.88;100033.30;125276;1094;104166;-77
2022/04/24 10:09:16;;;;;;;;;;;;;;;18.93;55.91;100026.18;125150;1096;102672;-78
2022/04/24 10:11:46;;;;;;;;;;;;;;;19.07;55.58;100034.07;125264;1096;102834;-76
2022/04/24 10:14:17;;;;;;;;;;;;;;;19.16;53.82;100034.02;124942;1096;102035;-78
2022/04/24 10:16:54;;;;;;;;;;;;;;;19.24;55.05;100034.83;125227;1096;104281;-77
2022/04/24 10:19:31;;;;;;;;;;;;;;;19.34;55.60;100030.34;125208;1096;104746;-76
2022/04/24 10:22:05;;;;;;;;;;;;;;;19.51;55.53;100038.16;125170;1095;102996;-77
2022/04/24 10:24:41;;;;;;;;;;;;;;;19.61;55.99;100037.20;125202;1096;104284;-76
2022/04/24 10:27:12;;;;;;;;;;;;;;;19.78;55.62;100036.22;125222;1096;104156;-76
2022/04/24 10:30:00;;;;;;;;;;;;;;;19.83;54.81;100032.59;125254;1096;104207;-77
2022/04/24 10:32:31;;;;;;;;;;;;;;;19.83;53.88;100027.27;125269;1096;101815;-77
2022/04/24 10:35:02;;;;;;;;;;;;;;;19.79;52.76;100032.63;125306;1096;104194;-77
2022/04/24 10:37:33;;;;;;;;;;;;;;;19.78;53.20;100022.91;125245;1096;104528;-77
2022/04/24 10:40:04;;;;;;;;;;;;;;;19.78;54.44;100017.58;125266;1096;105063;-77
2022/04/24 10:42:35;;;;;;;;;;;;;;;19.86;54.22;100029.03;125294;1096;104204;-78
2022/04/24 10:45:08;;;;;;;;;;;;;;;19.87;53.76;100022.81;125206;1096;102823;-77
2022/04/24 10:47:47;;;;;;;;;;;;;;;19.81;52.76;100020.22;125231;1096;102848;-77
2022/04/24 10:50:19;;;;;;;;;;;;;;;19.71;53.55;100022.93;125236;1096;104157;-77
2022/04/24 10:52:49;;;;;;;;;;;;;;;19.70;53.22;100018.49;125219;1096;104194;-77
2022/04/24 10:55:23;;;;;;;;;;;;;;;19.82;54.58;100021.95;125271;1096;102152;-77
2022/04/24 10:57:57;;;;;;;;;;;;;;;19.96;55.25;100017.40;125210;1096;102854;-78
2022/04/24 11:00:32;;;;;;;;;;;;;;;20.03;53.60;100026.20;125345;1096;104227;-75
2022/04/24 11:03:14;;;;;;;;;;;;;;;19.97;50.48;100015.61;125248;1096;104408;-74
2022/04/24 11:05:44;;;;;;;;;;;;;;;20.03;50.98;100013.75;125197;1096;104226;-75
2022/04/24 11:08:18;;;;;;;;;;;;;;;20.28;52.79;100013.48;125169;1096;102073;-75
2022/04/24 11:10:49;;;;;;;;;;;;;;;20.49;52.76;100004.34;125327;1095;104147;-75
2022/04/24 11:13:21;;;;;;;;;;;;;;;20.77;52.44;100010.22;125330;1096;104316;-75
2022/04/24 11:15:54;;;;;;;;;;;;;;;20.96;47.80;100008.16;125336;1096;104157;-75
2022/04/24 11:18:25;;;;;;;;;;;;;;;21.07;49.47;100012.47;125309;1096;104161;-75
2022/04/24 11:21:01;;;;;;;;;;;;;;;21.13;50.57;100007.01;125366;1096;103184;-76
2022/04/24 11:23:31;;;;;;;;;;;;;;;21.24;50.44;100010.41;125370;1096;102287;-76
2022/04/24 11:26:02;;;;;;;;;;;;;;;21.27;50.83;100006.79;124844;1099;104395;-76
2022/04/24 11:28:36;;;;;;;;;;;;;;;21.33;49.87;100006.69;124802;1099;102264;-77
2022/04/24 11:31:09;;;;;;;;;;;;;;;21.40;50.03;100005.70;124955;1099;104868;-77
2022/04/24 11:33:50;;;;;;;;;;;;;;;21.44;49.93;100002.08;124835;1096;102468;-76
2022/04/24 11:36:23;;;;;;;;;;;;;;;21.43;48.99;100005.64;124928;1097;104172;-76
2022/04/24 11:38:52;;;;;;;;;;;;;;;21.42;48.12;99997.66;124809;1096;104252;-76
2022/04/24 11:41:24;;;;;;;;;;;;;;;21.48;50.87;99997.56;124806;1099;102809;-76
2022/04/24 11:44:00;;;;;;;;;;;;;;;21.52;49.07;99994.84;124841;1099;101937;-76
2022/04/24 11:52:09;;;;;;;;;;;;;;;21.72;49.63;99997.16;124913;1095;104357;-77
2022/04/24 11:54:41;;;;;;;;;;;;;;;21.71;49.41;99994.52;124811;1096;104143;-76
2022/04/24 11:57:10;;;;;;;;;;;;;;;21.70;49.00;99998.09;124983;1096;104634;-76
2022/04/24 11:59:40;;;;;;;;;;;;;;;21.68;49.43;99991.91;125318;1096;104156;-77
2022/04/24 12:02:14;;;;;;;;;;;;;;;21.57;48.28;99980.55;125495;1096;104149;-77
2022/04/24 12:04:45;;;;;;;;;;;;;;;21.57;47.96;99978.75;125386;1096;104363;-76
2022/04/24 12:07:15;;;;;;;;;;;;;;;21.54;45.19;99985.02;125321;1096;104156;-77
2022/04/24 12:09:46;;;;;;;;;;;;;;;21.62;46.92;99986.68;125348;1095;103246;-77
2022/04/24 12:12:16;;;;;;;;;;;;;;;21.50;48.46;99980.66;125315;1096;102165;-75
2022/04/24 12:14:51;;;;;;;;;;;;;;;21.44;48.25;99983.40;125250;1096;104278;-76
2022/04/24 12:17:22;;;;;;;;;;;;;;;21.37;48.38;99981.73;125036;1096;104208;-77
2022/04/24 12:19:53;;;;;;;;;;;;;;;21.34;48.60;99985.31;124947;1096;104240;-76
2022/04/24 12:22:30;;;;;;;;;;;;;;;21.33;49.56;99983.58;124848;1096;104428;-76
2022/04/24 12:25:08;;;;;;;;;;;;;;;21.21;47.89;99967.77;124957;1096;102970;-77
2022/04/24 12:27:38;;;;;;;;;;;;;;;21.26;48.61;99989.04;124935;1096;102316;-76
2022/04/24 12:30:09;;;;;;;;;;;;;;;21.36;48.26;99982.62;124918;1096;104153;-77
2022/04/24 12:32:41;;;;;;;;;;;;;;;21.45;47.04;99985.14;124876;1096;104490;-76
2022/04/24 12:35:25;;;;;;;;;;;;;;;21.43;47.52;99975.42;124843;1096;104041;-78
2022/04/24 12:37:59;;;;;;;;;;;;;;;21.40;48.56;99979.01;125044;1096;101980;-77
2022/04/24 12:40:30;;;;;;;;;;;;;;;21.35;47.73;99975.55;125622;1096;104160;-77
2022/04/24 12:43:00;;;;;;;;;;;;;;;21.29;48.15;99978.31;124856;1096;104260;-77
2022/04/24 12:45:30;;;;;;;;;;;;;;;21.26;47.67;99981.03;124947;1096;104323;-77
2022/04/24 12:47:59;;;;;;;;;;;;;;;21.25;48.42;99973.92;124870;1096;104169;-77
2022/04/24 12:50:29;;;;;;;;;;;;;;;21.19;47.30;99975.80;125314;1096;104153;-77